Skip Navigation Links
Home and Info
Weather Forecast
Mountsorrel Weather
Climate Reports
Fun Stuff
Storm Chasing Pictures
Weather Tools
Me Only!
Stormchaser Mountsorrel Leicester current Weather StormChaser Mountsorrel Leicester current Weather


20 Febuary 2017 Climate report for Mountsorrel.

 

Mountsorrel Weather Climate values are an adverage reading taken during the hour before the one displayed.

The bottom value is the Mean or Total of all the values during the day.


TimeAir TempGround TempDew PointRH%RainSun MinutesWind RunWind HiWind Dir BarometerWxWxTxt
Feb 20 2017 8:00PM 11.6 11.1 9.6 87 1.6 --- 9 14 WNWWind direction 1015.3 Overcast Rain Overcast Rain
Feb 20 2017 7:00PM 12.0 11.7 9.9 86 --- --- 9 13 WWind direction 1015.0 Mostly Clouds Mostly Clouds
Feb 20 2017 6:00PM 12.5 11.8 10.1 85 --- --- 10 15 NWWind direction 1014.6 Mostly Clouds Mostly Clouds
Feb 20 2017 5:00PM 13.5 12.1 10.4 81 0.4 --- 9 13 NWWind direction 1014.2 Overcast Light Rain Overcast Light Rain
Feb 20 2017 4:00PM 14.4 14.0 10.3 76 --- --- 13 18 WWind direction 1013.7 Mostly Clouds Mostly Clouds
Feb 20 2017 3:00PM 15.0 15.3 10.3 73 --- --- 14 20 WWind direction 1013.6 Mostly Clouds Mostly Clouds
Feb 20 2017 2:00PM 14.6 15.5 10.5 76 --- --- 16 26 WWind direction 1013.7 Mostly Clouds Mostly Clouds
Feb 20 2017 1:00PM 13.9 14.6 10.6 80 --- --- 15 23 WWind direction 1014.0 Mostly Clouds Mostly Clouds
Feb 20 2017 12:00PM 13.0 13.8 10.2 83 --- --- 14 19 WSWWind direction 1014.4 Mostly Clouds Mostly Clouds
Feb 20 2017 11:00AM 12.5 12.8 10.1 85 --- --- 12 16 WSWWind direction 1014.9 Mostly Clouds Mostly Clouds
Feb 20 2017 10:00AM 12.3 12.8 10.2 86 --- --- 11 14 WSWWind direction 1015.2 Mostly Clouds Mostly Clouds
Feb 20 2017 9:00AM 11.9 12.5 10.1 88 --- 31 10 13 WSWWind direction 1015.5 Mostly Clouds Mostly Clouds
Feb 20 2017 8:00AM 11.7 11.9 10.0 89 --- 17 9 14 WWind direction 1015.8 Mostly Clouds Mostly Clouds
Feb 20 2017 7:00AM 11.8 11.7 10.0 89 --- --- 8 12 WNWWind direction 1015.8 Mostly Clouds Mostly Clouds
Feb 20 2017 6:00AM 11.7 12.1 10.1 89 --- --- 9 13 WWind direction 1015.8 Mostly Clouds Mostly Clouds
Feb 20 2017 5:00AM 11.2 11.5 9.5 89 --- --- 8 13 WSWWind direction 1015.6 Mostly Clouds Mostly Clouds
Feb 20 2017 4:00AM 10.8 10.9 9.0 89 --- --- 11 16 WSWWind direction 1015.8 Mostly Clouds Mostly Clouds
Feb 20 2017 3:00AM 10.4 10.6 8.6 88 --- --- 9 16 WSWWind direction 1016.3 Mostly Clouds Mostly Clouds
Feb 20 2017 2:00AM 10.2 10.0 8.2 87 --- --- 7 11 SWWind direction 1016.9 Mostly Clouds Mostly Clouds
Feb 20 2017 1:00AM 10.3 10.4 8.2 87 --- --- 9 12 WSWWind direction 1017.5 Mostly Clouds Mostly Clouds
Totals 12.3 12.4 9.8 84 2.0 00:48 212    1015.2   








The Mountsorrel Weather Station is located in Mountsorrel which is just South of Loughborough and just North of Leicester in Leicestershire.
It is maintained by Stormchaser Stuart Robinson whose passion is for all type of weather but especially the more severe types of weather such as Hurricanes, Typhoon and Tornadoes.